Stonyfork, Pennsylvania
Current Conditions -  °F | °C
As of 10:55 AM on Thursday 30 Oct 2014 (Local Time) from KN38 Reporting Station
Overcast Overcast  
Wind Chill: 37°   Ceiling: 2300
Heat Index: 43°   Visibility: 9mi
Dew Point: 34°   Wind: 10mph
Humidity: 70%   Direction: 340°NNW
Pressure: 30.05"   Gusts: 20mph
Location:  41.7308°N, 77.349°W
Report Text: KN38 301455Z AUTO 34009G17KT 320V020 9SM OVC023 06/01 A3005 RMK AO2
Loading
Personal Weather Stations






























Interactive Weather Map
Tropical Storm Tracking
New forecast layout! Learn more

10-Day Weather Forecast

Advertisements
Track Severe Weather on mobile